Time;durP1;ratioP1;P1;durP2;ratioP2;P2;SDS_P1;SDS_P2;PMS_P1;PMS_P2;Temp;Humidity;BMP_temperature;BMP_pressure;BME280_temperature;BME280_humidity;BME280_pressure;Samples;Min_cycle;Max_cycle;Signal;HPM_P1;HPM_P2
2022/06/01 00:01:39;;;;;;;0.60;0.60;;;8.40;99.90;;;;;;5060660;28;20132;-60
2022/06/01 00:04:06;;;;;;;0.82;0.68;;;8.40;99.90;;;;;;5060992;28;20072;-59
2022/06/01 00:06:33;;;;;;;0.50;0.45;;;8.40;99.90;;;;;;5060441;28;20097;-60
2022/06/01 00:08:59;;;;;;;0.68;0.60;;;8.40;99.90;;;;;;5062042;28;20094;-60
2022/06/01 00:11:26;;;;;;;0.50;0.50;;;8.40;99.90;;;;;;5064406;28;20132;-59
2022/06/01 00:13:53;;;;;;;0.95;0.80;;;8.50;99.90;;;;;;5064686;28;20532;-60
2022/06/01 00:16:21;;;;;;;0.68;0.68;;;8.50;99.90;;;;;;5064158;28;20183;-60
2022/06/01 00:18:48;;;;;;;0.68;0.65;;;8.50;99.90;;;;;;5064455;28;20135;-60
2022/06/01 00:21:15;;;;;;;1.92;0.77;;;8.50;99.90;;;;;;5063209;28;20124;-60
2022/06/01 00:23:41;;;;;;;1.10;1.05;;;8.60;99.90;;;;;;5059170;28;20134;-60
2022/06/01 00:26:08;;;;;;;0.57;0.47;;;8.70;99.90;;;;;;5063867;28;20059;-60
2022/06/01 00:28:35;;;;;;;0.65;0.63;;;8.60;99.90;;;;;;5064622;28;20193;-59
2022/06/01 00:31:03;;;;;;;0.57;0.57;;;8.70;99.90;;;;;;5064350;28;20080;-60
2022/06/01 00:33:30;;;;;;;1.35;0.85;;;8.60;99.90;;;;;;5064632;28;20090;-60
2022/06/01 00:35:57;;;;;;;0.60;0.60;;;8.60;99.90;;;;;;5063552;28;20072;-60
2022/06/01 00:38:24;;;;;;;0.80;0.70;;;8.60;99.90;;;;;;5063640;28;20052;-60
2022/06/01 00:40:51;;;;;;;0.63;0.63;;;8.60;99.90;;;;;;5064104;28;20051;-60
2022/06/01 00:43:21;;;;;;;0.80;0.80;;;8.60;99.90;;;;;;5064906;28;20080;-59
2022/06/01 00:45:48;;;;;;;1.23;0.93;;;8.60;99.90;;;;;;5064550;28;20052;-60
2022/06/01 00:48:14;;;;;;;0.60;0.60;;;8.60;99.90;;;;;;5063804;28;20488;-60
2022/06/01 00:50:41;;;;;;;0.60;0.57;;;8.70;99.90;;;;;;5063497;28;20128;-60
2022/06/01 00:53:15;;;;;;;1.13;0.73;;;8.60;99.90;;;;;;5061753;28;20080;-60
2022/06/01 00:55:44;;;;;;;1.13;0.70;;;8.60;99.90;;;;;;5059261;28;20298;-60
2022/06/01 00:58:14;;;;;;;0.88;0.70;;;8.60;99.90;;;;;;5043886;28;20095;-60
2022/06/01 01:00:42;;;;;;;0.75;0.70;;;8.60;99.90;;;;;;5066111;28;20124;-60
2022/06/01 01:03:10;;;;;;;0.45;0.45;;;8.60;99.90;;;;;;5063478;28;20666;-60
2022/06/01 01:05:48;;;;;;;0.55;0.55;;;8.50;99.90;;;;;;5061015;28;20124;-60
2022/06/01 01:08:15;;;;;;;1.00;0.80;;;8.50;99.90;;;;;;5063675;28;20536;-60
2022/06/01 01:10:41;;;;;;;0.77;0.70;;;8.50;99.90;;;;;;5063770;28;20573;-60
2022/06/01 01:13:09;;;;;;;0.68;0.68;;;8.50;99.90;;;;;;5062797;28;20961;-60
2022/06/01 01:15:40;;;;;;;0.60;0.60;;;8.40;99.90;;;;;;5058786;28;20114;-60
2022/06/01 01:18:13;;;;;;;0.75;0.60;;;8.50;99.90;;;;;;5060391;28;20052;-60
2022/06/01 01:20:42;;;;;;;;;;;8.40;99.90;;;;;;5061933;28;20149;-60
2022/06/01 01:23:38;;;;;;;1.00;0.70;;;8.40;99.90;;;;;;5095904;28;20298;-60
2022/06/01 01:26:05;;;;;;;0.60;0.60;;;8.50;99.90;;;;;;5079171;28;20051;-60
2022/06/01 01:28:33;;;;;;;0.65;0.57;;;8.50;99.90;;;;;;5063135;28;20977;-60
2022/06/01 01:31:26;;;;;;;0.70;0.52;;;8.40;99.90;;;;;;5059629;28;20127;-59
2022/06/01 01:33:54;;;;;;;1.45;1.20;;;8.30;99.90;;;;;;5062680;28;20131;-60
2022/06/01 01:36:27;;;;;;;0.77;0.77;;;8.30;99.90;;;;;;5062974;28;20048;-60
2022/06/01 01:39:01;;;;;;;0.80;0.70;;;8.30;99.90;;;;;;5063327;28;20049;-59
2022/06/01 01:41:42;;;;;;;0.88;0.70;;;8.40;99.90;;;;;;5065560;28;20587;-59
2022/06/01 01:44:40;;;;;;;0.85;0.70;;;8.40;99.90;;;;;;5063332;28;20075;-59
2022/06/01 01:47:07;;;;;;;0.68;0.65;;;8.40;99.90;;;;;;5063849;28;20087;-60
2022/06/01 01:49:35;;;;;;;0.80;0.70;;;8.40;99.90;;;;;;5064558;28;20577;-60
2022/06/01 01:52:04;;;;;;;0.73;0.68;;;8.50;99.90;;;;;;5061626;28;20067;-60
2022/06/01 01:54:50;;;;;;;0.80;0.70;;;8.50;99.90;;;;;;5078928;28;20132;-60
2022/06/01 01:57:54;;;;;;;0.75;0.63;;;8.40;99.90;;;;;;5064410;28;20132;-60
2022/06/01 02:00:24;;;;;;;0.77;0.70;;;8.40;99.90;;;;;;5065079;28;20131;-60
2022/06/01 02:03:07;;;;;;;0.70;0.70;;;8.40;99.90;;;;;;5059964;28;20057;-60
2022/06/01 02:06:04;;;;;;;0.68;0.65;;;8.40;99.90;;;;;;5050117;28;20084;-60
2022/06/01 02:08:51;;;;;;;0.68;0.65;;;8.30;99.90;;;;;;5057002;28;20053;-60
2022/06/01 02:14:19;;;;;;;0.90;0.77;;;8.30;99.90;;;;;;5063407;28;20078;-60
2022/06/01 02:16:50;;;;;;;0.70;0.70;;;8.30;99.90;;;;;;5058975;28;20691;-60
2022/06/01 02:19:20;;;;;;;0.52;0.52;;;8.40;99.90;;;;;;5046962;28;20389;-60
2022/06/01 02:21:47;;;;;;;1.05;0.70;;;8.40;99.90;;;;;;5060841;28;20102;-60
2022/06/01 02:24:14;;;;;;;0.98;0.75;;;8.40;99.90;;;;;;5064275;28;20138;-60
2022/06/01 02:26:40;;;;;;;0.90;0.80;;;8.30;99.90;;;;;;5064546;28;20140;-60
2022/06/01 02:29:13;;;;;;;0.82;0.77;;;8.30;99.90;;;;;;5064931;28;20085;-60
2022/06/01 02:31:40;;;;;;;0.80;0.65;;;8.20;99.90;;;;;;5062601;28;20068;-60
2022/06/01 02:34:07;;;;;;;0.70;0.63;;;8.20;99.90;;;;;;5060035;28;20080;-60
2022/06/01 02:36:34;;;;;;;0.63;0.63;;;8.20;99.90;;;;;;5059335;28;20168;-60
2022/06/01 02:39:01;;;;;;;0.73;0.70;;;8.30;99.90;;;;;;5087289;28;20124;-60
2022/06/01 02:44:15;;;;;;;1.05;0.80;;;8.20;99.90;;;;;;5064281;28;20048;-60
2022/06/01 02:46:42;;;;;;;1.17;0.90;;;8.20;99.90;;;;;;5059585;28;20095;-60
2022/06/01 02:49:09;;;;;;;0.68;0.68;;;8.20;99.90;;;;;;5061349;28;20107;-60
2022/06/01 02:51:36;;;;;;;1.30;0.90;;;8.20;99.90;;;;;;5064916;28;20500;-60
2022/06/01 02:54:02;;;;;;;1.20;0.80;;;8.10;99.90;;;;;;5064939;28;20083;-59
2022/06/01 02:56:29;;;;;;;1.00;0.90;;;8.00;99.90;;;;;;5066187;28;20200;-60
2022/06/01 02:58:56;;;;;;;0.50;0.50;;;8.00;99.90;;;;;;5065777;28;20051;-60
2022/06/01 03:01:23;;;;;;;0.75;0.70;;;8.00;99.90;;;;;;5065482;28;20095;-60
2022/06/01 03:03:50;;;;;;;0.90;0.90;;;8.00;99.90;;;;;;5066610;28;20048;-60
2022/06/01 03:06:17;;;;;;;1.13;0.80;;;8.00;99.90;;;;;;5065000;28;20090;-60
2022/06/01 03:08:45;;;;;;;1.15;0.90;;;8.00;99.90;;;;;;5065140;28;20131;-60
2022/06/01 03:11:13;;;;;;;0.68;0.68;;;7.90;99.90;;;;;;5065913;28;20123;-59
2022/06/01 03:13:39;;;;;;;0.80;0.77;;;7.80;99.90;;;;;;5066072;28;20087;-60
2022/06/01 03:16:06;;;;;;;0.73;0.70;;;7.80;99.90;;;;;;5065259;28;20049;-60
2022/06/01 03:18:33;;;;;;;1.10;0.90;;;7.80;99.90;;;;;;5065412;28;20040;-60
2022/06/01 03:21:00;;;;;;;0.60;0.55;;;7.70;99.90;;;;;;5064974;28;20075;-60
2022/06/01 03:23:26;;;;;;;0.80;0.68;;;7.70;99.90;;;;;;5065013;28;20098;-60
2022/06/01 03:25:53;;;;;;;1.08;0.73;;;7.70;99.90;;;;;;5066293;28;20455;-61
2022/06/01 03:28:20;;;;;;;0.52;0.50;;;7.70;99.90;;;;;;5065700;28;20143;-60
2022/06/01 03:30:47;;;;;;;0.77;0.73;;;7.60;99.90;;;;;;5064686;28;20105;-60
2022/06/01 03:33:14;;;;;;;0.52;0.52;;;7.60;99.90;;;;;;5065728;28;20131;-59
2022/06/01 03:35:41;;;;;;;0.85;0.63;;;7.60;99.90;;;;;;5064742;28;20123;-60
2022/06/01 03:38:07;;;;;;;0.90;0.70;;;7.60;99.90;;;;;;5064784;28;20072;-60
2022/06/01 03:40:35;;;;;;;0.60;0.60;;;7.50;99.90;;;;;;5065329;28;20091;-60
2022/06/01 03:43:02;;;;;;;0.52;0.50;;;7.40;99.90;;;;;;5065679;28;20133;-60
2022/06/01 03:48:15;;;;;;;0.80;0.70;;;7.30;99.90;;;;;;5064836;28;20094;-60
2022/06/01 03:50:44;;;;;;;1.00;0.70;;;7.40;99.90;;;;;;5065039;28;20512;-59
2022/06/01 03:53:11;;;;;;;0.95;0.70;;;7.40;99.90;;;;;;5064558;28;20263;-60
2022/06/01 03:55:37;;;;;;;0.40;0.40;;;7.40;99.90;;;;;;5065387;28;20455;-60
2022/06/01 03:58:04;;;;;;;0.77;0.60;;;7.40;99.90;;;;;;5082067;28;20084;-60
2022/06/01 04:00:31;;;;;;;0.85;0.70;;;7.40;99.90;;;;;;5069476;28;20091;-59
2022/06/01 04:02:58;;;;;;;0.65;0.63;;;7.40;99.90;;;;;;5068930;28;20131;-60
2022/06/01 04:05:25;;;;;;;0.55;0.52;;;7.40;99.90;;;;;;5068445;28;20041;-60
2022/06/01 04:07:52;;;;;;;0.60;0.60;;;7.40;99.90;;;;;;5069054;28;20080;-59
2022/06/01 04:10:20;;;;;;;0.80;0.63;;;7.40;99.90;;;;;;5069025;28;20101;-60
2022/06/01 04:12:47;;;;;;;0.80;0.70;;;7.40;99.90;;;;;;5069866;28;20048;-60
2022/06/01 04:15:14;;;;;;;0.98;0.90;;;7.40;99.90;;;;;;5069512;28;20124;-60
2022/06/01 04:17:40;;;;;;;0.50;0.50;;;7.40;99.90;;;;;;5067738;28;20518;-59
2022/06/01 04:20:08;;;;;;;0.63;0.63;;;7.40;99.90;;;;;;5068545;28;20096;-59
2022/06/01 04:22:37;;;;;;;0.70;0.70;;;7.40;99.90;;;;;;5067064;28;20124;-60
2022/06/01 04:25:04;;;;;;;0.50;0.50;;;7.40;99.90;;;;;;5067492;28;20225;-59
2022/06/01 04:27:30;;;;;;;0.70;0.70;;;7.40;99.90;;;;;;5068458;28;20092;-60
2022/06/01 04:29:57;;;;;;;0.52;0.52;;;7.50;99.90;;;;;;5068487;28;20452;-59
2022/06/01 04:32:27;;;;;;;0.68;0.68;;;7.50;99.90;;;;;;5068201;28;20063;-60
2022/06/01 04:34:53;;;;;;;0.50;0.50;;;7.50;99.90;;;;;;5066461;28;20412;-59
2022/06/01 04:37:20;;;;;;;0.82;0.70;;;7.50;99.90;;;;;;5067996;28;20132;-60
2022/06/01 04:39:47;;;;;;;0.85;0.75;;;7.60;99.90;;;;;;5068050;28;20084;-60
2022/06/01 04:42:14;;;;;;;0.98;0.50;;;7.60;99.90;;;;;;5068060;28;20128;-59
2022/06/01 04:44:41;;;;;;;0.75;0.65;;;7.70;99.90;;;;;;5068412;28;20124;-58
2022/06/01 04:47:09;;;;;;;0.77;0.70;;;7.70;99.90;;;;;;5066642;28;20087;-60
2022/06/01 04:49:36;;;;;;;0.50;0.50;;;7.70;99.90;;;;;;5082228;28;20045;-60
2022/06/01 04:52:04;;;;;;;0.60;0.60;;;7.80;99.90;;;;;;5065140;28;20083;-60
2022/06/01 04:54:31;;;;;;;0.73;0.68;;;7.90;99.90;;;;;;5066117;28;20097;-59
2022/06/01 04:56:57;;;;;;;0.73;0.65;;;7.90;99.90;;;;;;5060699;28;20060;-60
2022/06/01 04:59:24;;;;;;;0.60;0.60;;;8.00;99.90;;;;;;5064967;28;20123;-59
2022/06/01 05:01:51;;;;;;;0.55;0.55;;;8.10;99.90;;;;;;5061470;28;20127;-60
2022/06/01 05:04:18;;;;;;;1.10;0.82;;;8.10;99.90;;;;;;5060781;28;20543;-60
2022/06/01 05:06:44;;;;;;;0.52;0.52;;;8.10;99.90;;;;;;5059887;28;20057;-60
2022/06/01 05:09:11;;;;;;;0.60;0.60;;;8.20;99.90;;;;;;5055956;28;20507;-60
2022/06/01 05:11:38;;;;;;;0.70;0.50;;;8.20;99.90;;;;;;5057352;28;20052;-60
2022/06/01 05:14:05;;;;;;;0.70;0.70;;;8.30;99.90;;;;;;5058480;28;20131;-60
2022/06/01 05:16:31;;;;;;;0.73;0.63;;;8.30;99.90;;;;;;5053389;28;20139;-60
2022/06/01 05:18:59;;;;;;;0.68;0.52;;;8.40;99.90;;;;;;5059581;28;20041;-60
2022/06/01 05:21:25;;;;;;;0.70;0.70;;;8.50;99.90;;;;;;5056203;28;20541;-60
2022/06/01 05:23:52;;;;;;;0.60;0.60;;;8.50;99.90;;;;;;5058953;28;20658;-60
2022/06/01 05:26:19;;;;;;;0.93;0.82;;;8.40;99.90;;;;;;5069285;28;20147;-60
2022/06/01 05:28:46;;;;;;;0.70;0.60;;;8.50;99.90;;;;;;5059345;28;20484;-60
2022/06/01 05:31:13;;;;;;;0.90;0.57;;;8.50;99.90;;;;;;5059276;28;20136;-60
2022/06/01 05:33:43;;;;;;;0.60;0.60;;;8.60;99.90;;;;;;5058019;28;20095;-61
2022/06/01 05:36:10;;;;;;;0.90;0.50;;;8.70;99.90;;;;;;5058810;28;20076;-60
2022/06/01 05:38:37;;;;;;;0.80;0.80;;;8.70;99.90;;;;;;5059392;28;20049;-60
2022/06/01 05:41:04;;;;;;;0.60;0.60;;;8.70;99.90;;;;;;5059037;28;20196;-60
2022/06/01 05:43:31;;;;;;;0.82;0.70;;;8.80;99.90;;;;;;5067509;28;20294;-59
2022/06/01 05:45:58;;;;;;;0.98;0.70;;;8.90;99.90;;;;;;5060779;28;20083;-59
2022/06/01 05:48:24;;;;;;;0.60;0.60;;;8.90;99.90;;;;;;5053252;28;20589;-61
2022/06/01 05:50:57;;;;;;;1.23;0.80;;;9.00;99.90;;;;;;5056609;28;20109;-59
2022/06/01 05:53:24;;;;;;;0.70;0.65;;;9.00;99.90;;;;;;5054148;28;20120;-61
2022/06/01 05:55:50;;;;;;;1.48;0.95;;;9.00;99.90;;;;;;5053681;28;20078;-60
2022/06/01 05:58:19;;;;;;;0.90;0.60;;;9.10;99.90;;;;;;5053171;28;20159;-61
2022/06/01 06:00:46;;;;;;;1.17;0.77;;;9.10;99.90;;;;;;5065388;28;20044;-60
2022/06/01 06:03:13;;;;;;;1.00;0.90;;;9.10;99.90;;;;;;5055549;28;20056;-60
2022/06/01 06:08:33;;;;;;;1.10;1.00;;;9.20;99.90;;;;;;5050261;28;20087;-61
2022/06/01 06:10:59;;;;;;;1.23;1.13;;;9.20;99.90;;;;;;5045536;28;20045;-60
2022/06/01 06:13:26;;;;;;;1.58;1.13;;;9.30;99.90;;;;;;5049467;28;20486;-61
2022/06/01 06:15:53;;;;;;;1.60;1.30;;;9.30;99.90;;;;;;5061146;28;20143;-61
2022/06/01 06:18:19;;;;;;;1.20;1.10;;;9.40;99.90;;;;;;5061620;28;20048;-59
2022/06/01 06:20:46;;;;;;;1.30;1.10;;;9.50;99.90;;;;;;5057515;28;20165;-60
2022/06/01 06:23:14;;;;;;;0.93;0.82;;;9.60;99.90;;;;;;5054491;28;20435;-59
2022/06/01 06:25:41;;;;;;;1.30;1.02;;;9.60;99.90;;;;;;5057595;28;20526;-60
2022/06/01 06:28:08;;;;;;;1.40;1.30;;;9.70;99.90;;;;;;5052305;28;20635;-60
2022/06/01 06:30:36;;;;;;;1.33;1.23;;;9.70;99.90;;;;;;5057414;28;20090;-60
2022/06/01 06:33:03;;;;;;;1.27;1.17;;;9.90;99.90;;;;;;5059016;28;20087;-60
2022/06/01 06:35:29;;;;;;;1.73;1.50;;;9.90;99.90;;;;;;5059034;28;20090;-60
2022/06/01 06:37:56;;;;;;;2.03;1.42;;;9.90;99.90;;;;;;5058817;28;20782;-60
2022/06/01 06:40:23;;;;;;;1.88;1.67;;;10.00;99.90;;;;;;5056994;28;20133;-60
2022/06/01 06:42:50;;;;;;;1.98;1.52;;;10.10;99.90;;;;;;5059675;28;20056;-60
2022/06/01 06:45:16;;;;;;;1.50;1.40;;;10.20;99.90;;;;;;5058219;28;20558;-60
2022/06/01 06:47:43;;;;;;;1.77;1.50;;;10.30;99.90;;;;;;5050783;28;20170;-60
2022/06/01 06:50:11;;;;;;;1.77;1.42;;;10.40;99.90;;;;;;5058292;28;20062;-60
2022/06/01 06:52:38;;;;;;;1.90;1.40;;;10.50;99.90;;;;;;5056947;28;20329;-60
2022/06/01 06:55:06;;;;;;;1.52;1.30;;;10.70;99.90;;;;;;5058336;28;20138;-60
2022/06/01 06:57:33;;;;;;;1.65;1.25;;;10.90;99.90;;;;;;5059385;28;20087;-60
2022/06/01 07:00:00;;;;;;;1.20;0.95;;;11.00;99.90;;;;;;5058065;28;20130;-60
2022/06/01 07:02:26;;;;;;;1.13;1.05;;;11.10;99.90;;;;;;5058379;28;20092;-60
2022/06/01 07:04:53;;;;;;;1.55;1.10;;;11.20;99.90;;;;;;5058360;28;20539;-59
2022/06/01 07:07:20;;;;;;;1.10;1.00;;;11.40;99.90;;;;;;5058625;28;20045;-60
2022/06/01 07:09:47;;;;;;;2.03;1.52;;;11.50;99.90;;;;;;5058889;28;20127;-60
2022/06/01 07:12:13;;;;;;;1.60;1.33;;;11.60;99.90;;;;;;5058770;28;20529;-59
2022/06/01 07:14:40;;;;;;;1.30;1.17;;;11.60;99.90;;;;;;5059034;28;20127;-61
2022/06/01 07:17:07;;;;;;;1.75;1.40;;;11.70;99.90;;;;;;5059434;28;20086;-59
2022/06/01 07:19:34;;;;;;;1.90;1.33;;;11.70;99.90;;;;;;5059054;28;20450;-60
2022/06/01 07:22:00;;;;;;;1.75;1.55;;;11.70;99.90;;;;;;5055960;28;20049;-60
2022/06/01 07:24:27;;;;;;;1.48;1.38;;;11.70;99.90;;;;;;5058368;28;20057;-59
2022/06/01 07:26:54;;;;;;;3.03;1.95;;;11.70;99.90;;;;;;5058774;28;20049;-60
2022/06/01 07:29:21;;;;;;;2.13;1.70;;;11.70;99.90;;;;;;5057144;28;20052;-60
2022/06/01 07:31:50;;;;;;;1.92;1.63;;;11.70;99.90;;;;;;5058629;28;20048;-59
2022/06/01 07:34:17;;;;;;;1.75;1.50;;;11.60;99.90;;;;;;5058730;28;20500;-60
2022/06/01 07:36:45;;;;;;;2.72;2.05;;;11.70;99.90;;;;;;5056634;28;20186;-60
2022/06/01 07:44:49;;;;;;;2.10;1.88;;;12.00;99.90;;;;;;5058021;28;20802;-60
2022/06/01 07:47:17;;;;;;;2.97;1.85;;;12.10;99.90;;;;;;5057593;28;20525;-59
2022/06/01 07:50:04;;;;;;;1.70;1.50;;;12.30;99.90;;;;;;5057548;28;20060;-60
2022/06/01 07:52:51;;;;;;;1.70;1.52;;;12.50;99.90;;;;;;5057823;28;20052;-60
2022/06/01 07:55:17;;;;;;;2.22;1.52;;;12.80;99.90;;;;;;5058204;28;20151;-60
2022/06/01 07:57:44;;;;;;;2.00;1.80;;;12.90;99.90;;;;;;5058561;28;20139;-60
2022/06/01 08:00:11;;;;;;;1.85;1.70;;;13.00;99.90;;;;;;5058389;28;20500;-60
2022/06/01 08:02:38;;;;;;;2.17;1.90;;;13.20;99.90;;;;;;5058377;28;20152;-60
2022/06/01 08:05:06;;;;;;;2.50;2.10;;;13.20;99.90;;;;;;5056511;28;20048;-59
2022/06/01 08:07:33;;;;;;;3.22;2.33;;;13.30;99.90;;;;;;5057173;28;20140;-60
2022/06/01 08:10:00;;;;;;;2.95;1.80;;;13.30;99.90;;;;;;5057843;28;20142;-60
2022/06/01 08:15:12;;;;;;;2.20;2.00;;;13.50;99.90;;;;;;5058078;28;20547;-60
2022/06/01 08:17:47;;;;;;;;;;;13.60;99.90;;;;;;5058798;28;20144;-61
2022/06/01 08:20:14;;;;;;;2.25;2.05;;;13.70;99.90;;;;;;5057323;28;20459;-59
2022/06/01 08:22:42;;;;;;;1.90;1.60;;;13.80;99.90;;;;;;5056306;28;20492;-60
2022/06/01 08:25:10;;;;;;;3.08;2.65;;;13.90;99.90;;;;;;5057758;28;20499;-60
2022/06/01 08:27:36;;;;;;;1.73;1.55;;;13.80;99.90;;;;;;5058286;28;20124;-60
2022/06/01 08:30:04;;;;;;;2.85;1.60;;;14.00;99.90;;;;;;5058321;28;20044;-61
2022/06/01 08:32:30;;;;;;;2.63;2.42;;;14.10;99.90;;;;;;5057924;28;20139;-60
2022/06/01 08:34:57;;;;;;;2.00;1.70;;;14.10;99.90;;;;;;5057545;28;20080;-59
2022/06/01 08:37:24;;;;;;;2.35;1.70;;;14.10;99.90;;;;;;5057396;28;20475;-60
2022/06/01 08:39:51;;;;;;;2.20;2.00;;;14.00;99.90;;;;;;5058086;28;20167;-60
2022/06/01 08:42:19;;;;;;;1.90;1.70;;;14.10;99.90;;;;;;5058391;28;20139;-60
2022/06/01 08:44:46;;;;;;;2.58;2.13;;;14.10;99.90;;;;;;5058261;28;20044;-60
2022/06/01 08:47:20;;;;;;;1.40;1.30;;;14.10;99.90;;;;;;5060267;28;20163;-59
2022/06/01 08:49:47;;;;;;;1.95;1.40;;;14.20;99.90;;;;;;5059895;28;20076;-59
2022/06/01 08:52:14;;;;;;;1.90;1.63;;;14.30;99.90;;;;;;5058920;28;20048;-59
2022/06/01 08:54:40;;;;;;;2.13;1.92;;;14.30;99.90;;;;;;5061490;28;20325;-60
2022/06/01 08:57:13;;;;;;;2.75;2.13;;;14.30;99.90;;;;;;5060172;28;20504;-60
2022/06/01 08:59:40;;;;;;;;;;;14.30;99.90;;;;;;5061007;28;20105;-60
2022/06/01 09:02:29;;;;;;;2.28;1.50;;;14.30;99.90;;;;;;5060562;28;20081;-60
2022/06/01 09:05:15;;;;;;;2.67;2.00;;;14.40;99.90;;;;;;5061393;28;20070;-60
2022/06/01 09:07:54;;;;;;;1.88;1.55;;;14.40;99.90;;;;;;5062624;28;20140;-60
2022/06/01 09:10:51;;;;;;;2.20;2.00;;;14.30;99.90;;;;;;5063351;28;20242;-60
2022/06/01 09:13:23;;;;;;;1.98;1.60;;;14.40;99.90;;;;;;5066183;28;20049;-60
2022/06/01 09:15:52;;;;;;;2.17;1.50;;;14.50;99.90;;;;;;5064605;28;20045;-60
2022/06/01 09:18:20;;;;;;;1.60;1.33;;;14.60;99.90;;;;;;5062372;28;20075;-60
2022/06/01 09:23:33;;;;;;;2.45;1.10;;;14.40;99.90;;;;;;5064273;28;20126;-60
2022/06/01 09:26:00;;;;;;;1.20;1.10;;;14.60;99.90;;;;;;5063972;28;20251;-60
2022/06/01 09:28:27;;;;;;;1.35;1.25;;;14.80;99.90;;;;;;5062875;28;20631;-61
2022/06/01 09:31:00;;;;;;;2.42;1.15;;;15.00;99.90;;;;;;5063990;28;20127;-61
2022/06/01 09:33:28;;;;;;;1.33;1.05;;;15.20;99.90;;;;;;5064190;28;20079;-60
2022/06/01 09:36:07;;;;;;;1.10;0.90;;;15.40;99.90;;;;;;5066941;28;20113;-60
2022/06/01 09:38:53;;;;;;;1.45;1.15;;;15.40;99.90;;;;;;5067111;28;20087;-60
2022/06/01 09:41:20;;;;;;;1.17;0.95;;;15.60;99.90;;;;;;5066742;28;20131;-60
2022/06/01 09:44:01;;;;;;;1.17;1.00;;;15.70;99.90;;;;;;5067281;28;20094;-60
2022/06/01 09:46:40;;;;;;;1.38;0.98;;;15.70;99.90;;;;;;5067238;28;20159;-60
2022/06/01 09:49:25;;;;;;;0.85;0.77;;;15.80;99.90;;;;;;5066744;28;20048;-60
2022/06/01 09:51:57;;;;;;;0.77;0.77;;;16.10;99.90;;;;;;5065935;28;20088;-60
2022/06/01 09:54:25;;;;;;;0.88;0.80;;;16.10;99.90;;;;;;5065984;28;20048;-60
2022/06/01 09:56:51;;;;;;;0.70;0.70;;;16.20;99.90;;;;;;5066518;28;20139;-60
2022/06/01 10:08:14;;;;;;;0.98;0.90;;;16.30;99.90;;;;;;5064632;28;20068;-60
2022/06/01 10:10:55;;;;;;;0.98;0.80;;;16.50;99.90;;;;;;5063503;28;20215;-60
2022/06/01 10:13:31;;;;;;;0.70;0.70;;;16.60;99.90;;;;;;5062057;28;20408;-60
2022/06/01 10:16:07;;;;;;;1.52;0.80;;;16.60;99.90;;;;;;5057367;28;20109;-60
2022/06/01 10:18:34;;;;;;;0.60;0.50;;;16.70;99.90;;;;;;5064668;28;20436;-60
2022/06/01 10:21:05;;;;;;;0.73;0.60;;;16.90;99.90;;;;;;5063498;28;20048;-60
2022/06/01 10:23:38;;;;;;;1.08;0.98;;;16.90;99.90;;;;;;5061892;28;20214;-60
2022/06/01 10:26:09;;;;;;;;;;;16.80;99.90;;;;;;5057391;28;20045;-60
2022/06/01 10:28:41;;;;;;;0.75;0.50;;;16.70;99.90;;;;;;5060640;28;19986;-60
2022/06/01 10:31:14;;;;;;;;;;;16.70;99.90;;;;;;5065037;28;20160;-60
2022/06/01 10:33:44;;;;;;;0.57;0.50;;;16.70;99.90;;;;;;5063598;28;20031;-60
2022/06/01 10:36:26;;;;;;;0.30;0.30;;;16.80;99.90;;;;;;5056079;28;20425;-60
2022/06/01 10:39:02;;;;;;;0.60;0.60;;;16.80;99.90;;;;;;5073193;28;20152;-60
2022/06/01 10:41:39;;;;;;;0.47;0.40;;;16.70;99.90;;;;;;5063436;28;20109;-60
2022/06/01 10:44:24;;;;;;;0.60;0.50;;;16.40;99.90;;;;;;5057187;28;20453;-60
2022/06/01 10:47:10;;;;;;;0.70;0.40;;;16.30;99.90;;;;;;5059581;28;20593;-59
2022/06/01 10:50:04;;;;;;;0.60;0.40;;;16.00;99.90;;;;;;5059964;28;20490;-60
2022/06/01 10:53:01;;;;;;;0.52;0.40;;;15.90;99.90;;;;;;5058775;28;20407;-59
2022/06/01 10:55:42;;;;;;;0.70;0.50;;;15.70;99.90;;;;;;5057011;28;20079;-59
2022/06/01 10:58:22;;;;;;;0.40;0.40;;;15.60;99.90;;;;;;5057877;28;20121;-60
2022/06/01 11:01:10;;;;;;;0.70;0.40;;;15.60;99.90;;;;;;5057580;28;20048;-60
2022/06/01 11:04:06;;;;;;;1.10;0.70;;;15.50;99.90;;;;;;5058933;28;20068;-60
2022/06/01 11:06:58;;;;;;;0.40;0.40;;;15.40;99.90;;;;;;5052378;28;20076;-61
2022/06/01 11:09:45;;;;;;;1.25;0.75;;;15.30;99.90;;;;;;5041323;28;20539;-61
2022/06/01 11:12:45;;;;;;;1.10;0.77;;;15.20;99.90;;;;;;5051233;28;20059;-61
2022/06/01 11:15:23;;;;;;;1.17;0.50;;;15.10;99.90;;;;;;5058466;28;20209;-61
2022/06/01 11:18:02;;;;;;;0.90;0.68;;;15.00;99.90;;;;;;5056420;28;20129;-61
2022/06/01 11:20:41;;;;;;;0.90;0.50;;;15.00;99.90;;;;;;5055891;28;20063;-61
2022/06/01 11:23:18;;;;;;;1.10;0.70;;;14.90;99.90;;;;;;5052494;28;20143;-60
2022/06/01 11:26:04;;;;;;;0.85;0.52;;;14.80;99.90;;;;;;5046489;28;20440;-61
2022/06/01 11:28:44;;;;;;;0.82;0.70;;;14.70;99.90;;;;;;5054761;28;20080;-60
2022/06/01 11:31:26;;;;;;;1.52;0.90;;;14.80;99.90;;;;;;5057770;28;20045;-61
2022/06/01 11:33:53;;;;;;;1.10;0.80;;;14.70;99.90;;;;;;5057237;28;20049;-58
2022/06/01 11:36:45;;;;;;;1.30;0.80;;;14.70;99.90;;;;;;5055983;28;20619;-61
2022/06/01 11:39:29;;;;;;;0.88;0.70;;;14.70;99.90;;;;;;5060153;28;20389;-60
2022/06/01 11:42:12;;;;;;;0.40;0.40;;;15.00;99.90;;;;;;5057416;28;20478;-60
2022/06/01 11:44:41;;;;;;;0.82;0.57;;;15.40;99.90;;;;;;5055993;28;20140;-60
2022/06/01 11:47:08;;;;;;;0.50;0.50;;;15.70;99.90;;;;;;5066566;28;20289;-61
2022/06/01 11:49:39;;;;;;;0.52;0.52;;;15.90;99.90;;;;;;5057411;28;20132;-61
2022/06/01 11:52:28;;;;;;;0.60;0.50;;;16.20;99.90;;;;;;5052365;28;20049;-60
2022/06/01 11:55:29;;;;;;;1.25;0.65;;;16.50;99.90;;;;;;5055853;28;20048;-61
2022/06/01 11:58:06;;;;;;;0.98;0.68;;;16.70;99.90;;;;;;5059143;28;20401;-61
2022/06/01 12:00:35;;;;;;;0.75;0.73;;;16.90;99.90;;;;;;5056540;28;20124;-61
2022/06/01 12:03:17;;;;;;;0.70;0.65;;;17.30;99.90;;;;;;5058323;28;20060;-58
2022/06/01 12:06:13;;;;;;;1.23;0.60;;;17.90;99.90;;;;;;5055390;28;20082;-58
2022/06/01 12:08:53;;;;;;;0.70;0.60;;;18.40;99.90;;;;;;5056744;28;20060;-58
2022/06/01 12:11:39;;;;;;;0.75;0.65;;;18.80;99.90;;;;;;5057187;28;20476;-58
2022/06/01 12:14:20;;;;;;;0.50;0.50;;;18.60;99.90;;;;;;5053166;28;20067;-58
2022/06/01 12:17:24;;;;;;;0.40;0.40;;;18.60;99.90;;;;;;5056629;28;20099;-57
2022/06/01 12:20:11;;;;;;;0.82;0.60;;;18.80;99.90;;;;;;5017361;28;20586;-58
2022/06/01 12:28:58;;;;;;;0.73;0.50;;;19.90;99.90;;;;;;5061441;28;20111;-59
2022/06/01 12:31:29;;;;;;;0.63;0.47;;;19.40;99.90;;;;;;5054597;28;20076;-60
2022/06/01 12:34:06;;;;;;;1.38;1.00;;;19.00;99.90;;;;;;5056411;28;20102;-59
2022/06/01 12:36:36;;;;;;;0.70;0.70;;;19.40;99.90;;;;;;5056191;28;20049;-59
2022/06/01 12:39:07;;;;;;;1.23;0.70;;;19.80;99.90;;;;;;5060613;28;20526;-60
2022/06/01 12:41:36;;;;;;;1.73;0.90;;;19.80;99.90;;;;;;5064014;28;20076;-60
2022/06/01 12:44:05;;;;;;;0.95;0.65;;;20.20;99.90;;;;;;5062532;28;20131;-59
2022/06/01 12:46:38;;;;;;;1.08;0.80;;;20.80;99.90;;;;;;5066722;28;20421;-60
2022/06/01 12:49:37;;;;;;;0.60;0.57;;;20.80;99.90;;;;;;5053408;28;20053;-60
2022/06/01 12:52:05;;;;;;;1.88;1.00;;;20.90;99.90;;;;;;5064328;28;20094;-60
2022/06/01 12:54:41;;;;;;;0.80;0.70;;;20.90;99.90;;;;;;5059474;28;20535;-60
2022/06/01 12:57:12;;;;;;;0.50;0.50;;;21.50;99.90;;;;;;5076582;28;20060;-60
2022/06/01 12:59:40;;;;;;;0.60;0.40;;;21.90;98.00;;;;;;5060868;28;20194;-60
2022/06/01 13:02:12;;;;;;;0.47;0.43;;;22.20;98.70;;;;;;5056811;28;20492;-60
2022/06/01 13:04:49;;;;;;;0.40;0.40;;;22.50;97.20;;;;;;5043774;28;20075;-60
2022/06/01 13:07:16;;;;;;;0.40;0.25;;;22.60;96.00;;;;;;5054824;28;20045;-61
2022/06/01 13:09:43;;;;;;;0.30;0.30;;;22.90;96.00;;;;;;5061384;28;20139;-60
2022/06/01 13:12:15;;;;;;;0.30;0.30;;;23.20;95.30;;;;;;5042657;28;20056;-60
2022/06/01 13:14:42;;;;;;;0.30;0.30;;;23.30;95.20;;;;;;5061202;28;20740;-60
2022/06/01 13:17:17;;;;;;;0.30;0.30;;;23.50;92.30;;;;;;5061179;28;20079;-61
2022/06/01 13:19:58;;;;;;;0.30;0.30;;;24.30;91.80;;;;;;5060852;28;20163;-60
2022/06/01 13:22:29;;;;;;;0.55;0.30;;;24.80;92.50;;;;;;5059766;28;20140;-61
2022/06/01 13:25:03;;;;;;;0.90;0.60;;;24.40;93.10;;;;;;5059874;28;20161;-59
2022/06/01 13:27:30;;;;;;;0.50;0.50;;;24.40;93.90;;;;;;5060194;28;20124;-60
2022/06/01 13:30:00;;;;;;;0.30;0.30;;;24.30;93.30;;;;;;5058843;28;20080;-59
2022/06/01 13:32:33;;;;;;;0.63;0.50;;;23.70;91.80;;;;;;5059188;28;20045;-60
2022/06/01 13:35:16;;;;;;;0.40;0.40;;;22.70;93.80;;;;;;5058337;28;20441;-59
2022/06/01 13:37:44;;;;;;;0.52;0.40;;;21.80;95.80;;;;;;5059326;28;20127;-59
2022/06/01 13:40:23;;;;;;;0.32;0.30;;;21.00;95.60;;;;;;5060318;28;20139;-59
2022/06/01 13:42:58;;;;;;;0.80;0.40;;;20.60;97.80;;;;;;5060750;28;20147;-59
2022/06/01 13:45:41;;;;;;;0.63;0.50;;;20.40;97.70;;;;;;5059009;28;20507;-59
2022/06/01 13:48:34;;;;;;;0.32;0.30;;;20.10;97.10;;;;;;5058051;28;20522;-59
2022/06/01 13:51:03;;;;;;;0.70;0.38;;;19.60;98.00;;;;;;5060265;28;20090;-59
2022/06/01 13:53:44;;;;;;;0.40;0.40;;;19.50;97.20;;;;;;5058974;28;20159;-60